ADDS TAF Board (Experimental) INFO Settings

IDs: Format: Expanded Condensed

KPIT - Pittsburgh Intl, PA, US

Issued at 2320 UTC 24 Apr 2015
Updated at: 0415 UTC 25 Apr 2015
Time0351Z 25/05Z 25/06Z 25/07Z 25/08Z 25/09Z 25/10Z 25/11Z 25/12Z 25/13Z 25/14Z 25/15Z 25/16Z 25/17Z
Type OBS PRVL PRVL PRVL PRVL PRVL PRVL PRVL PRVL PRVL PRVL PRVL PRVL PRVL
VIS 10 >6 >6 >6 >6 >6 >6 >6 >6 >6 >6 >6 >6 >6
CIG 250 -- -- -- -- -- 80 80 80 80 80 80 80 80
Cover BKN SCT SCT SCT SCT SCT BKN BKN BKN BKN BKN BKN BKN BKN
FltCat VFR VFR VFR VFR VFR VFR VFR VFR VFR VFR VFR VFR VFR VFR
WX -- -- -- -- -- -- -- -- -- -- -- -- -- --
WDir 50 360 360 360 360 360 70 70 70 70 70 70 70 70
WSpd 3 5 5 5 5 5 5 5 5 5 5 5 5 5
WGst -- -- -- -- -- -- -- -- -- -- -- -- -- --
R10/28
XWnd 2 5 5 5 5 5 2 2 2 2 2 2 2 2
HWnd 2 -0 -0 -0 -0 -0 5 5 5 5 5 5 5 5
R14/32
XWnd 3 3 3 3 3 3 5 5 5 5 5 5 5 5
HWnd 0 -4 -4 -4 -4 -4 2 2 2 2 2 2 2 2

NOTE: TEMPO conditions in [brackets]. Keep in mind TEMPO conditions might be better (lower impact) than prevailing conditions.

Raw TAF
KPIT 242320Z 2500/2606 36005KT P6SM SCT150
  FM251000 07005KT P6SM BKN080
  FM252200 09005KT P6SM -SHRA OVC035


Raw METAR
KPIT 250351Z 05003KT 10SM BKN250 06/M08 A2998 RMK AO2 SLP166 T00561078
KPIT 250251Z VRB03KT 10SM SCT250 07/M08 A2998 RMK AO2 SLP167 T00671083 50003
KPIT 250151Z 03004KT 10SM FEW250 08/M08 A3000 RMK AO2 SLP171 T00781083

METAR Board
Radar Display
Forecast Discussion

TAF Board Legend

Potential Impact
Threat None Slight Moderate High
Visibility (sm) ≥5.1 5.1>X≥3 3>X≥1 <1
Ceiling (100 ft) ≥30.1 30.1>X≥10 10>X≥5 <5
Wind Speed (kt) <10 10≤X<20 20≤X<30 ≥30
Wind Gust (kt) <15 15≤X<25 25≤X<35 ≥35
Weather No Wx Reported VCTS,-TS,-FZRA,SN TS,FZRA +TS,+FZRA,+SN